Almino Afonso, Brazil
Current Conditions -  °F | °C
As of 4:00 AM on Saturday 25 Oct 2014 (Local Time) from SBJU Reporting Station
Scattered Clouds Scattered Clouds  
Wind Chill: 82°   Ceiling: Unl
Heat Index: 86°   Visibility: 6mi
Dew Point: 70°   Wind: 6mph
Humidity: 66%   Direction: 100°E
Pressure: 29.97"   Gusts: NA
Location:  6.15°S, 37.77°W
Report Text: SBJU 250700Z 10005KT 9999 SCT020 28/21 Q1015
Loading
Personal Weather Stations






























Interactive Weather Map
Tropical Storm Tracking
New forecast layout! Learn more

10-Day Weather Forecast

Advertisements
Track Severe Weather on mobile